Aquilla, Texas
Current Conditions -  °F | °C
As of 12:04 AM on Sunday 21 Dec 2014 (Local Time) from KACT Reporting Station
Haze Haze  
Wind Chill: 46°   Ceiling: 2600
Heat Index: 48°   Visibility: 6mi
Dew Point: 46°   Wind: 5mph
Humidity: 93%   Direction: 110°ESE
Pressure: 30.17"   Gusts: NA
Location:  31.85°N, 97.22°W
Report Text: KACT 210604Z 11004KT 6SM BR SCT008 OVC026 09/08 A3017 RMK AO2 T00890078
Loading
Personal Weather Stations






























Interactive Weather Map New forecast layout! Learn more

10-Day Weather Forecast

Advertisements
Track Severe Weather on mobile